Time;durP1;ratioP1;P1;durP2;ratioP2;P2;SDS_P1;SDS_P2;PMS_P1;PMS_P2;Temp;Humidity;BMP_temperature;BMP_pressure;BME280_temperature;BME280_humidity;BME280_pressure;Samples;Min_cycle;Max_cycle;Signal;HPM_P1;HPM_P2
2022/01/06 00:00:14;;;;;;;2.60;2.50;;;5.00;99.90;;;;;;5064069;28;20214;-73
2022/01/06 00:02:41;;;;;;;2.70;2.60;;;5.10;99.90;;;;;;5061947;28;20222;-75
2022/01/06 00:05:09;;;;;;;2.13;2.08;;;5.00;99.90;;;;;;5064881;28;20194;-71
2022/01/06 00:07:36;;;;;;;2.35;2.25;;;5.00;99.90;;;;;;5067108;28;20230;-74
2022/01/06 00:10:07;;;;;;;2.30;2.20;;;5.00;99.90;;;;;;5067710;28;20214;-76
2022/01/06 00:12:41;;;;;;;2.70;2.60;;;5.00;99.90;;;;;;5064834;28;20723;-73
2022/01/06 00:15:23;;;;;;;2.38;2.28;;;5.00;99.90;;;;;;5067589;28;20831;-73
2022/01/06 00:18:12;;;;;;;2.60;2.50;;;4.90;99.90;;;;;;5065383;28;20222;-76
2022/01/06 00:23:29;;;;;;;2.13;2.03;;;5.00;99.90;;;;;;5063707;28;20603;-77
2022/01/06 00:26:00;;;;;;;2.38;2.28;;;4.90;99.90;;;;;;5063851;28;20297;-75
2022/01/06 00:28:27;;;;;;;2.60;2.50;;;4.90;99.90;;;;;;5065453;28;20194;-75
2022/01/06 00:30:55;;;;;;;2.40;2.30;;;4.90;99.90;;;;;;5061136;28;20230;-72
2022/01/06 00:33:22;;;;;;;2.40;2.30;;;4.90;99.90;;;;;;5063214;28;20248;-71
2022/01/06 00:35:50;;;;;;;2.25;2.15;;;4.80;99.90;;;;;;5062871;28;20207;-74
2022/01/06 00:38:17;;;;;;;2.28;2.17;;;4.80;99.90;;;;;;5064855;28;20199;-73
2022/01/06 00:40:44;;;;;;;2.58;2.47;;;4.90;99.90;;;;;;5062715;28;20210;-72
2022/01/06 00:43:12;;;;;;;2.40;2.30;;;4.90;99.90;;;;;;5062621;28;20203;-74
2022/01/06 00:45:40;;;;;;;2.38;2.28;;;4.90;99.90;;;;;;5065952;28;20199;-74
2022/01/06 00:48:09;;;;;;;2.38;2.28;;;4.90;99.90;;;;;;5068392;28;20201;-70
2022/01/06 00:50:37;;;;;;;2.50;2.40;;;5.00;99.90;;;;;;5063414;28;20218;-73
2022/01/06 00:53:04;;;;;;;2.55;2.45;;;5.00;99.90;;;;;;5065388;28;20194;-73
2022/01/06 00:55:32;;;;;;;2.50;2.40;;;5.00;99.90;;;;;;5060460;28;20202;-74
2022/01/06 00:58:00;;;;;;;2.50;2.40;;;4.90;99.90;;;;;;5064901;28;20238;-71
2022/01/06 01:00:37;;;;;;;2.40;2.30;;;5.00;99.90;;;;;;5063074;28;20214;-72
2022/01/06 01:03:05;;;;;;;2.63;2.53;;;4.90;99.90;;;;;;5064052;28;20672;-74
2022/01/06 01:05:33;;;;;;;1.90;1.90;;;4.90;99.90;;;;;;5070410;28;20281;-72
2022/01/06 01:08:00;;;;;;;2.50;2.40;;;4.90;99.90;;;;;;5065108;28;20279;-71
2022/01/06 01:10:27;;;;;;;2.50;2.40;;;4.90;99.90;;;;;;5065174;28;20222;-71
2022/01/06 01:12:54;;;;;;;2.22;2.13;;;4.90;99.90;;;;;;5061798;28;20221;-73
2022/01/06 01:15:23;;;;;;;2.30;2.20;;;4.90;99.90;;;;;;5063810;28;20199;-71
2022/01/06 01:17:52;;;;;;;2.30;2.20;;;4.90;99.90;;;;;;5063491;28;20220;-74
2022/01/06 01:20:20;;;;;;;2.53;2.33;;;4.90;99.90;;;;;;5063073;28;20214;-72
2022/01/06 01:22:48;;;;;;;2.50;2.40;;;4.80;99.90;;;;;;5060652;28;20234;-69
2022/01/06 01:25:16;;;;;;;2.30;2.20;;;4.90;99.90;;;;;;5061755;28;20194;-74
2022/01/06 01:27:44;;;;;;;2.42;2.33;;;4.80;99.90;;;;;;5057088;28;20233;-75
2022/01/06 01:30:14;;;;;;;1.88;1.88;;;4.80;99.90;;;;;;5048829;28;20223;-70
2022/01/06 01:32:46;;;;;;;2.58;2.47;;;4.70;99.90;;;;;;5051359;28;20230;-72
2022/01/06 01:35:15;;;;;;;2.05;2.03;;;4.80;99.90;;;;;;5060857;28;20201;-78
2022/01/06 01:37:42;;;;;;;2.38;2.28;;;4.70;99.90;;;;;;5059464;28;20259;-75
2022/01/06 01:40:11;;;;;;;2.40;2.30;;;4.70;99.90;;;;;;5060641;28;20221;-77
2022/01/06 01:42:38;;;;;;;2.45;2.35;;;4.60;99.90;;;;;;5061065;28;20692;-75
2022/01/06 01:45:08;;;;;;;2.40;2.30;;;4.60;99.90;;;;;;5052601;28;20209;-73
2022/01/06 01:47:40;;;;;;;2.15;2.15;;;4.50;99.90;;;;;;5049159;28;20285;-73
2022/01/06 01:50:15;;;;;;;2.20;2.10;;;4.50;99.90;;;;;;5049641;28;20240;-75
2022/01/06 01:52:48;;;;;;;2.47;2.38;;;4.50;99.90;;;;;;5050949;28;20225;-77
2022/01/06 01:55:18;;;;;;;2.30;2.10;;;4.40;99.90;;;;;;5057881;28;20745;-72
2022/01/06 01:57:46;;;;;;;2.47;2.38;;;4.30;99.90;;;;;;5050057;28;20226;-73
2022/01/06 02:00:14;;;;;;;2.85;2.75;;;4.20;99.90;;;;;;5050608;28;20222;-77
2022/01/06 02:02:42;;;;;;;2.50;2.40;;;4.20;99.90;;;;;;5064708;28;20222;-72
2022/01/06 02:05:10;;;;;;;2.53;2.42;;;4.20;99.90;;;;;;5057790;28;20730;-73
2022/01/06 02:07:40;;;;;;;3.30;2.40;;;4.20;99.90;;;;;;5065833;28;20218;-75
2022/01/06 02:10:12;;;;;;;3.15;2.70;;;4.20;99.90;;;;;;5063775;28;20218;-74
2022/01/06 02:12:41;;;;;;;2.60;2.50;;;4.30;99.90;;;;;;5061663;28;20230;-73
2022/01/06 02:15:10;;;;;;;2.42;2.33;;;4.30;99.90;;;;;;5066215;28;20194;-72
2022/01/06 02:17:38;;;;;;;2.70;2.60;;;4.30;99.90;;;;;;5063849;28;20259;-71
2022/01/06 02:20:09;;;;;;;2.30;2.20;;;4.30;99.90;;;;;;5063693;28;20217;-76
2022/01/06 02:22:36;;;;;;;2.70;2.60;;;4.30;99.90;;;;;;5065732;28;20229;-71
2022/01/06 02:25:12;;;;;;;2.67;2.58;;;4.30;99.90;;;;;;5064300;28;20206;-74
2022/01/06 02:27:39;;;;;;;2.67;2.58;;;4.30;99.90;;;;;;5063049;28;20233;-76
2022/01/06 02:30:08;;;;;;;2.15;2.05;;;4.30;99.90;;;;;;5069742;28;20696;-77
2022/01/06 02:32:35;;;;;;;2.42;2.33;;;4.30;99.90;;;;;;5063714;28;20218;-72
2022/01/06 02:35:10;;;;;;;2.58;2.47;;;4.20;99.90;;;;;;5064763;28;20191;-72
2022/01/06 02:37:37;;;;;;;2.30;2.20;;;4.20;99.90;;;;;;5065042;28;20267;-74
2022/01/06 02:40:08;;;;;;;2.30;2.20;;;4.20;99.90;;;;;;5065388;28;20221;-72
2022/01/06 02:42:36;;;;;;;2.35;2.25;;;4.30;99.90;;;;;;5063116;28;20477;-75
2022/01/06 02:45:03;;;;;;;2.65;2.47;;;4.30;99.90;;;;;;5066020;28;20198;-76
2022/01/06 02:47:31;;;;;;;2.50;2.40;;;4.30;99.90;;;;;;5069434;28;20214;-74
2022/01/06 02:49:58;;;;;;;2.40;2.30;;;4.20;99.90;;;;;;5063774;28;20801;-78
2022/01/06 02:52:27;;;;;;;2.35;2.25;;;4.20;99.90;;;;;;5062928;28;20259;-76
2022/01/06 02:54:54;;;;;;;2.50;2.40;;;4.10;99.90;;;;;;5062556;28;20240;-72
2022/01/06 02:57:21;;;;;;;2.30;2.20;;;4.10;99.90;;;;;;5063440;28;20225;-74
2022/01/06 02:59:48;;;;;;;2.30;2.20;;;4.10;99.90;;;;;;5059806;28;20759;-76
2022/01/06 03:02:15;;;;;;;2.60;2.50;;;4.10;99.90;;;;;;5062054;28;20225;-74
2022/01/06 03:04:42;;;;;;;2.35;2.25;;;4.10;99.90;;;;;;5065217;28;20700;-74
2022/01/06 03:07:09;;;;;;;2.65;2.55;;;4.10;99.90;;;;;;5060506;28;20675;-75
2022/01/06 03:09:40;;;;;;;2.90;2.80;;;4.20;99.90;;;;;;5066573;28;20214;-72
2022/01/06 03:12:17;;;;;;;2.35;2.25;;;4.20;99.90;;;;;;5062537;28;20222;-75
2022/01/06 03:14:45;;;;;;;2.63;2.53;;;4.20;99.90;;;;;;5067302;28;20609;-71
2022/01/06 03:17:12;;;;;;;2.70;2.60;;;4.20;99.90;;;;;;5065273;28;20222;-76
2022/01/06 03:19:39;;;;;;;2.40;2.30;;;4.20;99.90;;;;;;5064097;28;20210;-79
2022/01/06 03:22:06;;;;;;;2.67;2.58;;;4.20;99.90;;;;;;5064401;28;20226;-75
2022/01/06 03:24:33;;;;;;;2.50;2.40;;;4.20;99.90;;;;;;5065465;28;20191;-75
2022/01/06 03:27:01;;;;;;;2.60;2.50;;;4.10;99.90;;;;;;5063832;28;20305;-75
2022/01/06 03:29:28;;;;;;;2.47;2.38;;;4.20;99.90;;;;;;5063243;28;20639;-76
2022/01/06 03:31:55;;;;;;;2.33;2.22;;;4.20;99.90;;;;;;5062126;28;20230;-72
2022/01/06 03:34:22;;;;;;;2.50;2.40;;;4.20;99.90;;;;;;5065124;28;20202;-74
2022/01/06 03:36:49;;;;;;;2.47;2.38;;;4.20;99.90;;;;;;5062320;28;20765;-74
2022/01/06 03:39:16;;;;;;;2.70;2.60;;;4.10;99.90;;;;;;5063214;28;20219;-78
2022/01/06 03:41:43;;;;;;;2.60;2.50;;;4.10;99.90;;;;;;5064158;28;20226;-75
2022/01/06 03:44:12;;;;;;;2.38;2.28;;;4.10;99.90;;;;;;5062341;28;20201;-74
2022/01/06 03:46:39;;;;;;;2.47;2.38;;;4.10;99.90;;;;;;5065801;28;20226;-74
2022/01/06 03:49:06;;;;;;;2.70;2.60;;;4.00;99.90;;;;;;5065203;28;20219;-72
2022/01/06 03:51:33;;;;;;;2.50;2.40;;;4.00;99.90;;;;;;5069784;28;20276;-78
2022/01/06 03:54:01;;;;;;;2.95;2.78;;;4.00;99.90;;;;;;5065966;28;20199;-74
2022/01/06 03:56:28;;;;;;;2.47;2.38;;;4.00;99.90;;;;;;5069744;28;20206;-73
2022/01/06 03:58:55;;;;;;;2.47;2.38;;;3.90;99.90;;;;;;5071181;28;20206;-73
2022/01/06 04:01:23;;;;;;;2.40;2.30;;;3.90;99.90;;;;;;5069530;28;20274;-75
2022/01/06 04:03:50;;;;;;;2.22;2.13;;;3.90;99.90;;;;;;5067760;28;20252;-72
2022/01/06 04:06:17;;;;;;;2.28;2.17;;;3.90;99.90;;;;;;5069638;28;20202;-73
2022/01/06 04:08:45;;;;;;;2.53;2.42;;;3.80;99.90;;;;;;5067220;28;20221;-75
2022/01/06 04:11:12;;;;;;;2.42;2.33;;;3.80;99.90;;;;;;5065741;28;20221;-72
2022/01/06 04:13:39;;;;;;;3.13;2.92;;;3.80;99.90;;;;;;5062154;28;20449;-73
2022/01/06 04:16:09;;;;;;;2.28;2.17;;;3.80;99.90;;;;;;5066731;28;20272;-71
2022/01/06 04:18:37;;;;;;;2.38;2.28;;;3.80;99.90;;;;;;5067890;28;20214;-71
2022/01/06 04:21:06;;;;;;;2.55;2.45;;;3.80;99.90;;;;;;5064977;28;20222;-77
2022/01/06 04:23:33;;;;;;;2.63;2.53;;;3.70;99.90;;;;;;5065630;28;20256;-74
2022/01/06 04:26:00;;;;;;;2.30;2.20;;;3.70;99.90;;;;;;5068101;28;20543;-75
2022/01/06 04:28:28;;;;;;;2.70;2.60;;;3.70;99.90;;;;;;5066143;28;20214;-76
2022/01/06 04:30:55;;;;;;;2.20;2.10;;;3.70;99.90;;;;;;5064538;28;20226;-78
2022/01/06 04:33:22;;;;;;;2.30;2.20;;;3.70;99.90;;;;;;5070444;28;20252;-76
2022/01/06 04:35:50;;;;;;;2.80;2.70;;;3.70;99.90;;;;;;5064583;28;20263;-73
2022/01/06 04:38:17;;;;;;;2.47;2.38;;;3.70;99.90;;;;;;5064717;28;20215;-77
2022/01/06 04:40:44;;;;;;;2.60;2.50;;;3.70;99.90;;;;;;5067228;28;20214;-73
2022/01/06 04:43:12;;;;;;;2.75;2.65;;;3.60;99.90;;;;;;5070335;28;20635;-78
2022/01/06 04:45:39;;;;;;;3.17;3.08;;;3.60;99.90;;;;;;5069831;28;20195;-73
2022/01/06 04:48:06;;;;;;;2.65;2.55;;;3.60;99.90;;;;;;5066268;28;20226;-72
2022/01/06 04:50:33;;;;;;;2.60;2.50;;;3.60;99.90;;;;;;5065942;28;20213;-73
2022/01/06 04:53:01;;;;;;;2.70;2.60;;;3.60;99.90;;;;;;5067761;28;20214;-71
2022/01/06 04:55:28;;;;;;;2.60;2.50;;;3.50;99.90;;;;;;5068510;28;20205;-76
2022/01/06 04:57:55;;;;;;;2.30;2.20;;;3.50;99.90;;;;;;5064251;28;20272;-73
2022/01/06 05:00:23;;;;;;;2.17;2.15;;;3.50;99.90;;;;;;5066589;28;20595;-74
2022/01/06 05:02:50;;;;;;;2.40;2.30;;;3.50;99.90;;;;;;5067603;28;20218;-74
2022/01/06 05:05:17;;;;;;;2.60;2.50;;;3.50;99.90;;;;;;5068000;28;20220;-76
2022/01/06 05:07:45;;;;;;;2.72;2.63;;;3.50;99.90;;;;;;5063137;28;20751;-73
2022/01/06 05:10:13;;;;;;;2.60;2.50;;;3.50;99.90;;;;;;5066308;28;20253;-74
2022/01/06 05:12:41;;;;;;;2.80;2.70;;;3.50;99.90;;;;;;5064978;28;20214;-75
2022/01/06 05:15:09;;;;;;;2.78;2.67;;;3.50;99.90;;;;;;5068744;28;20616;-77
2022/01/06 05:17:36;;;;;;;2.53;2.42;;;3.40;99.90;;;;;;5064033;28;20230;-78
2022/01/06 05:20:04;;;;;;;2.55;2.45;;;3.40;99.90;;;;;;5065037;28;20717;-75
2022/01/06 05:22:32;;;;;;;2.50;2.40;;;3.40;99.90;;;;;;5069362;28;20214;-75
2022/01/06 05:24:59;;;;;;;2.42;2.33;;;3.40;99.90;;;;;;5065851;28;20286;-77
2022/01/06 05:27:27;;;;;;;2.60;2.50;;;3.40;99.90;;;;;;5066728;28;20218;-77
2022/01/06 05:32:31;;;;;;;2.72;2.63;;;3.40;99.90;;;;;;5045250;28;20225;-67
2022/01/06 05:34:58;;;;;;;2.80;2.58;;;3.40;99.90;;;;;;5046037;28;20191;-67
2022/01/06 05:37:25;;;;;;;2.55;2.45;;;3.40;99.90;;;;;;5046668;28;20214;-67
2022/01/06 05:39:52;;;;;;;2.65;2.55;;;3.30;99.90;;;;;;5045490;28;20199;-67
2022/01/06 05:42:19;;;;;;;2.50;2.40;;;3.30;99.90;;;;;;5025126;28;20220;-67
2022/01/06 05:44:47;;;;;;;2.47;2.38;;;3.30;99.90;;;;;;5027091;28;20548;-67
2022/01/06 05:47:14;;;;;;;2.35;2.22;;;3.20;99.90;;;;;;5026432;28;20702;-67
2022/01/06 05:49:41;;;;;;;2.30;2.20;;;3.20;99.90;;;;;;5027444;28;20195;-67
2022/01/06 05:52:08;;;;;;;2.60;2.50;;;3.10;99.90;;;;;;5027129;28;20740;-67
2022/01/06 05:54:35;;;;;;;2.78;2.67;;;3.20;99.90;;;;;;5026663;28;20187;-67
2022/01/06 05:57:03;;;;;;;2.65;2.55;;;3.10;99.90;;;;;;5025969;28;20265;-67
2022/01/06 05:59:32;;;;;;;2.92;2.83;;;3.20;99.90;;;;;;5026291;28;20200;-67
2022/01/06 06:02:00;;;;;;;2.90;2.80;;;3.10;99.90;;;;;;5022946;28;20216;-67
2022/01/06 06:04:28;;;;;;;2.90;2.78;;;3.10;99.90;;;;;;5027021;28;20211;-67
2022/01/06 06:06:55;;;;;;;2.53;2.42;;;3.10;99.90;;;;;;5024697;28;20227;-67
2022/01/06 06:09:22;;;;;;;2.97;2.88;;;3.00;99.90;;;;;;5026602;28;20199;-67
2022/01/06 06:11:49;;;;;;;3.35;3.15;;;3.00;99.90;;;;;;5025676;28;20277;-67
2022/01/06 06:14:16;;;;;;;2.85;2.75;;;3.00;99.90;;;;;;5026620;28;20226;-67
2022/01/06 06:16:43;;;;;;;3.47;3.20;;;3.00;99.90;;;;;;5025939;28;20207;-67
2022/01/06 06:19:11;;;;;;;3.40;3.20;;;3.10;99.90;;;;;;5026380;28;20672;-67
2022/01/06 06:21:38;;;;;;;4.28;4.00;;;3.00;99.90;;;;;;5028199;28;20219;-67
2022/01/06 06:24:06;;;;;;;4.18;3.50;;;3.00;99.90;;;;;;5026754;28;20265;-67
2022/01/06 06:26:33;;;;;;;4.80;4.50;;;3.00;99.90;;;;;;5024665;28;20496;-67
2022/01/06 06:29:00;;;;;;;4.40;4.10;;;3.00;99.90;;;;;;5026899;28;20270;-67
2022/01/06 06:31:27;;;;;;;4.20;3.90;;;3.00;99.90;;;;;;5025582;28;20223;-67
2022/01/06 06:33:54;;;;;;;4.70;4.32;;;2.90;99.90;;;;;;5026950;28;20642;-69
2022/01/06 06:36:23;;;;;;;3.72;3.53;;;2.90;99.90;;;;;;5026454;28;20200;-67
2022/01/06 06:38:50;;;;;;;3.90;3.70;;;2.90;99.90;;;;;;5025537;28;20219;-67
2022/01/06 06:41:17;;;;;;;3.17;3.05;;;2.90;99.90;;;;;;5024903;28;20269;-67
2022/01/06 06:43:44;;;;;;;3.42;3.22;;;2.80;99.90;;;;;;5025585;28;20216;-67
2022/01/06 06:46:11;;;;;;;3.05;2.95;;;2.80;99.90;;;;;;5026102;28;20199;-67
2022/01/06 06:48:38;;;;;;;2.88;2.78;;;2.80;99.90;;;;;;5026246;28;20224;-67
2022/01/06 06:51:05;;;;;;;3.22;3.05;;;2.90;99.90;;;;;;5023319;28;20227;-67
2022/01/06 06:53:33;;;;;;;2.83;2.72;;;2.90;99.90;;;;;;5022764;28;20226;-67
2022/01/06 06:56:00;;;;;;;3.22;3.13;;;2.90;99.90;;;;;;5026053;28;20245;-68
2022/01/06 06:58:27;;;;;;;3.22;3.13;;;2.90;99.90;;;;;;5023944;28;20222;-67
2022/01/06 07:00:54;;;;;;;2.92;2.83;;;2.90;99.90;;;;;;5024122;28;20222;-67
2022/01/06 07:03:21;;;;;;;3.08;2.97;;;2.90;99.90;;;;;;5025086;28;20234;-67
2022/01/06 07:05:48;;;;;;;2.88;2.78;;;2.90;99.90;;;;;;5026914;28;20247;-67
2022/01/06 07:08:15;;;;;;;2.70;2.60;;;2.90;99.90;;;;;;5026744;28;20653;-67
2022/01/06 07:10:44;;;;;;;2.92;2.83;;;3.00;99.90;;;;;;5026242;28;20644;-67
2022/01/06 07:13:16;;;;;;;2.72;2.63;;;3.00;99.90;;;;;;5027059;28;20246;-67
2022/01/06 07:15:43;;;;;;;3.15;3.05;;;3.00;99.90;;;;;;5027792;28;20200;-67
2022/01/06 07:18:11;;;;;;;2.67;2.58;;;3.00;99.90;;;;;;5026104;28;20230;-67
2022/01/06 07:20:38;;;;;;;2.78;2.67;;;3.00;99.90;;;;;;5026818;28;20212;-67
2022/01/06 07:23:05;;;;;;;3.13;3.03;;;3.00;99.90;;;;;;5031570;28;20768;-67
2022/01/06 07:25:32;;;;;;;2.65;2.55;;;3.00;99.90;;;;;;5031228;28;20196;-68
2022/01/06 07:28:01;;;;;;;2.92;2.83;;;3.00;99.90;;;;;;5030878;28;20219;-67
2022/01/06 07:30:30;;;;;;;2.85;2.75;;;3.00;99.90;;;;;;5030302;28;20230;-67
2022/01/06 07:32:57;;;;;;;3.20;3.10;;;3.00;99.90;;;;;;5027704;28;20628;-67
2022/01/06 07:35:24;;;;;;;2.70;2.60;;;3.00;99.90;;;;;;5031493;28;20208;-67
2022/01/06 07:37:51;;;;;;;3.10;3.00;;;3.00;99.90;;;;;;5027430;28;20281;-67
2022/01/06 07:40:20;;;;;;;2.70;2.60;;;3.00;99.90;;;;;;5025598;28;20215;-67
2022/01/06 07:42:47;;;;;;;2.90;2.80;;;3.20;99.90;;;;;;5028746;28;20223;-67
2022/01/06 07:45:16;;;;;;;3.15;3.05;;;3.20;99.90;;;;;;5026654;28;20195;-67
2022/01/06 07:47:55;;;;;;;2.83;2.72;;;3.30;99.90;;;;;;5026587;28;20293;-67
2022/01/06 07:50:23;;;;;;;3.00;2.90;;;3.30;99.90;;;;;;5030143;28;20215;-68
2022/01/06 07:52:51;;;;;;;3.28;3.13;;;3.30;99.90;;;;;;5038041;28;20702;-68
2022/01/06 07:55:18;;;;;;;2.60;2.50;;;3.20;99.90;;;;;;5039528;28;20196;-67
2022/01/06 07:57:45;;;;;;;2.92;2.83;;;3.20;99.90;;;;;;5038773;28;20289;-67
2022/01/06 08:00:13;;;;;;;3.22;3.10;;;3.20;99.90;;;;;;5038882;28;20351;-67
2022/01/06 08:02:41;;;;;;;3.08;2.78;;;3.30;99.90;;;;;;5028162;28;25515;-67
2022/01/06 08:05:12;;;;;;;3.35;3.15;;;3.40;99.90;;;;;;5021911;28;20196;-67
2022/01/06 08:07:39;;;;;;;3.10;2.90;;;3.70;99.90;;;;;;5030190;28;20203;-67
2022/01/06 08:10:07;;;;;;;3.85;3.55;;;3.90;99.90;;;;;;5029047;28;20666;-67
2022/01/06 08:12:34;;;;;;;3.45;3.15;;;3.90;99.90;;;;;;5028604;28;20195;-67
2022/01/06 08:15:01;;;;;;;3.90;3.60;;;4.00;99.90;;;;;;5030141;28;20245;-67
2022/01/06 08:17:28;;;;;;;3.78;3.58;;;3.90;99.90;;;;;;5028874;28;20204;-69
2022/01/06 08:19:57;;;;;;;3.63;3.33;;;3.80;99.90;;;;;;5019477;28;20235;-67
2022/01/06 08:22:24;;;;;;;4.05;3.65;;;3.80;99.90;;;;;;5022176;28;20282;-68
2022/01/06 08:24:53;;;;;;;2.85;2.75;;;3.90;99.90;;;;;;5021806;28;20199;-68
2022/01/06 08:27:23;;;;;;;3.35;3.15;;;4.70;99.90;;;;;;5019889;28;20202;-68
2022/01/06 08:29:52;;;;;;;3.72;3.53;;;5.70;99.90;;;;;;5019453;28;20278;-68
2022/01/06 08:32:19;;;;;;;3.72;2.90;;;6.40;99.90;;;;;;5019354;28;20942;-68
2022/01/06 08:34:46;;;;;;;3.22;3.03;;;7.00;99.90;;;;;;5018875;28;20235;-68
2022/01/06 08:37:14;;;;;;;3.10;3.00;;;7.60;99.90;;;;;;5021231;28;20203;-68
2022/01/06 08:39:42;;;;;;;3.50;3.30;;;8.30;99.90;;;;;;5016663;28;20222;-68
2022/01/06 08:42:11;;;;;;;2.83;2.72;;;8.80;99.90;;;;;;5019024;28;20224;-69
2022/01/06 08:44:39;;;;;;;2.67;2.58;;;9.20;99.90;;;;;;5018079;28;20215;-68
2022/01/06 08:47:07;;;;;;;2.70;2.60;;;9.20;99.90;;;;;;5018971;28;20560;-68
2022/01/06 08:49:34;;;;;;;2.92;2.72;;;9.00;99.90;;;;;;5019251;28;20250;-68
2022/01/06 08:52:02;;;;;;;2.47;2.38;;;9.00;99.90;;;;;;5017865;28;20765;-68
2022/01/06 08:54:30;;;;;;;2.60;2.50;;;9.10;99.90;;;;;;5017754;28;20445;-68
2022/01/06 08:56:58;;;;;;;3.95;2.72;;;9.40;99.90;;;;;;5016357;28;20495;-67
2022/01/06 08:59:25;;;;;;;2.88;2.78;;;9.70;99.90;;;;;;5016305;28;20224;-67
2022/01/06 09:01:52;;;;;;;2.72;2.55;;;9.90;99.90;;;;;;5018346;28;20280;-68
2022/01/06 09:04:20;;;;;;;2.67;2.58;;;10.30;99.90;;;;;;5015411;28;21008;-68
2022/01/06 09:06:48;;;;;;;2.92;2.72;;;10.60;99.90;;;;;;5017202;28;20294;-69
2022/01/06 09:09:15;;;;;;;2.80;2.60;;;10.90;99.90;;;;;;5017491;28;20269;-68
2022/01/06 09:11:44;;;;;;;2.97;2.78;;;11.30;99.90;;;;;;5019135;28;20230;-69
2022/01/06 09:14:12;;;;;;;2.50;2.40;;;11.50;99.90;;;;;;5018188;28;20226;-68
2022/01/06 09:16:40;;;;;;;2.92;2.72;;;11.60;99.90;;;;;;5018733;28;20796;-69
2022/01/06 09:19:07;;;;;;;2.75;2.55;;;11.70;99.90;;;;;;5017975;28;20228;-68
2022/01/06 09:21:34;;;;;;;2.60;2.50;;;12.30;99.90;;;;;;5013564;28;20230;-67
2022/01/06 09:24:06;;;;;;;2.70;2.50;;;13.60;99.90;;;;;;5019122;28;20648;-69
2022/01/06 09:26:34;;;;;;;2.28;2.17;;;15.10;99.90;;;;;;5019489;28;20254;-69
2022/01/06 09:29:04;;;;;;;2.33;2.22;;;16.50;98.20;;;;;;5016783;28;20345;-69
2022/01/06 09:31:31;;;;;;;2.30;2.20;;;18.00;92.80;;;;;;5018450;28;20224;-71
2022/01/06 09:33:59;;;;;;;2.03;1.92;;;19.30;87.80;;;;;;5017073;28;20242;-69
2022/01/06 09:36:28;;;;;;;1.92;1.83;;;20.30;80.90;;;;;;5019250;28;20199;-69
2022/01/06 09:38:55;;;;;;;1.50;1.48;;;20.90;73.10;;;;;;5016651;28;20233;-69
2022/01/06 09:41:23;;;;;;;1.85;1.75;;;20.80;68.50;;;;;;5019359;28;20211;-69
2022/01/06 09:43:52;;;;;;;1.40;1.40;;;20.90;66.00;;;;;;5022121;28;20219;-70
2022/01/06 09:46:22;;;;;;;1.55;1.45;;;20.90;65.60;;;;;;5018801;28;20503;-70
2022/01/06 09:48:49;;;;;;;1.77;1.67;;;21.20;63.10;;;;;;5018064;28;20235;-68
2022/01/06 09:51:17;;;;;;;1.48;1.38;;;21.30;64.30;;;;;;5019779;28;20224;-69
2022/01/06 09:53:45;;;;;;;1.85;1.75;;;21.70;61.10;;;;;;5017850;28;20600;-69
2022/01/06 09:56:12;;;;;;;1.30;1.30;;;21.50;59.60;;;;;;5017729;28;20306;-70
2022/01/06 09:58:40;;;;;;;1.40;1.40;;;21.20;59.80;;;;;;5017160;28;20218;-69
2022/01/06 10:01:07;;;;;;;1.52;1.50;;;20.80;59.80;;;;;;5017920;28;20219;-69
2022/01/06 10:03:37;;;;;;;1.73;1.63;;;20.20;62.50;;;;;;5019032;28;20761;-68
2022/01/06 10:06:12;;;;;;;1.33;1.33;;;19.20;64.30;;;;;;5019462;28;20192;-69
2022/01/06 10:08:39;;;;;;;1.67;1.58;;;17.90;66.10;;;;;;5017663;28;20771;-69
2022/01/06 10:11:14;;;;;;;1.80;1.70;;;16.50;69.90;;;;;;5018504;28;20223;-69
2022/01/06 10:13:42;;;;;;;1.88;1.77;;;15.20;72.10;;;;;;5017813;28;20697;-70
2022/01/06 10:16:15;;;;;;;1.70;1.60;;;14.40;77.70;;;;;;5019125;28;20200;-69
2022/01/06 10:18:59;;;;;;;1.55;1.45;;;13.90;79.70;;;;;;5017647;28;20311;-70
2022/01/06 10:21:30;;;;;;;1.77;1.67;;;13.40;80.00;;;;;;5016908;28;20235;-70
2022/01/06 10:24:02;;;;;;;1.65;1.58;;;13.20;81.90;;;;;;5015141;28;20481;-72
2022/01/06 10:26:30;;;;;;;1.90;1.80;;;13.30;81.80;;;;;;5015843;28;20652;-70
2022/01/06 10:28:57;;;;;;;1.70;1.60;;;13.20;82.60;;;;;;5015795;28;20704;-70
2022/01/06 10:31:25;;;;;;;1.63;1.60;;;13.40;82.10;;;;;;5016855;28;20226;-71
2022/01/06 10:33:54;;;;;;;1.77;1.67;;;13.20;82.10;;;;;;5021436;28;20637;-71
2022/01/06 10:36:29;;;;;;;1.40;1.40;;;13.30;80.50;;;;;;5017771;28;20191;-71
2022/01/06 10:38:57;;;;;;;2.03;1.40;;;13.00;80.60;;;;;;5015579;28;20222;-70
2022/01/06 10:41:27;;;;;;;1.58;1.48;;;12.90;79.20;;;;;;5018368;28;20430;-70
2022/01/06 10:43:56;;;;;;;1.50;1.40;;;12.80;79.70;;;;;;5016279;28;20639;-70
2022/01/06 10:46:30;;;;;;;1.98;1.88;;;12.60;81.70;;;;;;5017428;28;20199;-70
2022/01/06 10:49:00;;;;;;;1.85;1.75;;;12.60;80.30;;;;;;5017466;28;20219;-69
2022/01/06 10:51:39;;;;;;;1.98;1.88;;;12.70;81.50;;;;;;5016997;28;20230;-70
2022/01/06 10:54:16;;;;;;;2.00;1.90;;;12.70;81.80;;;;;;5017213;28;20220;-69
2022/01/06 10:56:43;;;;;;;2.20;2.10;;;12.60;81.70;;;;;;5021154;28;20666;-70
2022/01/06 10:59:11;;;;;;;1.83;1.73;;;12.60;82.30;;;;;;5022543;28;20223;-73
2022/01/06 11:01:38;;;;;;;2.20;1.92;;;12.50;82.60;;;;;;5021312;28;20759;-71
2022/01/06 11:04:07;;;;;;;1.58;1.48;;;12.60;82.40;;;;;;5021041;28;20223;-71
2022/01/06 11:06:34;;;;;;;1.70;1.60;;;12.60;81.90;;;;;;5020239;28;20203;-69
2022/01/06 11:09:02;;;;;;;1.90;1.80;;;12.80;83.30;;;;;;5023282;28;20230;-70
2022/01/06 11:11:44;;;;;;;1.70;1.60;;;12.90;82.40;;;;;;5021417;28;20590;-69
2022/01/06 11:14:17;;;;;;;2.42;1.83;;;13.00;83.60;;;;;;5018800;28;20212;-69
2022/01/06 11:16:44;;;;;;;1.80;1.70;;;13.50;82.60;;;;;;5020659;28;20246;-68
2022/01/06 11:19:13;;;;;;;1.48;1.45;;;13.30;81.40;;;;;;5024723;28;20211;-68
2022/01/06 11:21:43;;;;;;;1.58;1.48;;;13.30;80.40;;;;;;5025100;28;20222;-69
2022/01/06 11:24:15;;;;;;;1.70;1.60;;;13.30;82.70;;;;;;5022133;28;20601;-69
2022/01/06 11:26:44;;;;;;;1.80;1.70;;;13.50;83.40;;;;;;5023505;28;20648;-70
2022/01/06 11:29:13;;;;;;;1.60;1.60;;;13.70;83.00;;;;;;5022623;28;20274;-69
2022/01/06 11:31:42;;;;;;;1.48;1.48;;;13.70;79.90;;;;;;5066059;22;20238;-74
2022/01/06 11:34:16;;;;;;;1.75;1.65;;;13.70;80.00;;;;;;5027023;28;20226;-73
2022/01/06 11:36:44;;;;;;;1.70;1.60;;;13.70;81.00;;;;;;5022002;28;20253;-74
2022/01/06 11:39:29;;;;;;;1.80;1.70;;;13.70;80.30;;;;;;5024198;28;20689;-74
2022/01/06 11:41:58;;;;;;;1.65;1.55;;;13.80;79.60;;;;;;5024152;28;20705;-71
2022/01/06 11:44:29;;;;;;;1.42;1.40;;;13.90;80.90;;;;;;5022085;28;20720;-72
2022/01/06 11:46:57;;;;;;;1.40;1.40;;;13.70;76.40;;;;;;5022856;28;20261;-72
2022/01/06 11:49:35;;;;;;;1.50;1.40;;;13.60;78.20;;;;;;5020055;28;20235;-74
2022/01/06 11:52:07;;;;;;;1.38;1.38;;;13.60;77.60;;;;;;5021337;28;20222;-73
2022/01/06 11:54:46;;;;;;;1.20;1.20;;;13.60;78.90;;;;;;5019703;28;20607;-72
2022/01/06 11:57:13;;;;;;;1.85;1.75;;;13.70;78.10;;;;;;5024766;28;20187;-72
2022/01/06 11:59:40;;;;;;;1.65;1.55;;;13.70;76.30;;;;;;5019828;28;20234;-70
2022/01/06 12:02:07;;;;;;;1.27;1.27;;;13.40;77.70;;;;;;5021849;28;20216;-70
2022/01/06 12:04:38;;;;;;;1.58;1.48;;;13.50;79.90;;;;;;5021863;28;20231;-72
2022/01/06 12:07:07;;;;;;;1.30;1.30;;;13.80;79.40;;;;;;5027970;28;20192;-75
2022/01/06 12:09:34;;;;;;;1.30;1.30;;;13.70;76.90;;;;;;5020731;28;20253;-73
2022/01/06 12:12:03;;;;;;;1.75;1.65;;;13.40;77.30;;;;;;5021957;28;20219;-71
2022/01/06 12:14:31;;;;;;;1.60;1.50;;;13.10;77.20;;;;;;5020264;28;20215;-73
2022/01/06 12:17:05;;;;;;;1.67;1.58;;;13.00;75.30;;;;;;5017630;28;20197;-71
2022/01/06 12:19:33;;;;;;;1.58;1.48;;;12.80;77.60;;;;;;5018535;28;20223;-71
2022/01/06 12:22:03;;;;;;;1.60;1.50;;;12.60;74.50;;;;;;5017859;28;20234;-72
2022/01/06 12:24:30;;;;;;;1.58;1.48;;;12.50;75.40;;;;;;5017402;28;20300;-73
2022/01/06 12:26:57;;;;;;;1.38;1.38;;;12.50;76.00;;;;;;5018041;28;20251;-75
2022/01/06 12:29:26;;;;;;;1.23;1.23;;;12.70;78.20;;;;;;5020408;28;20226;-74
2022/01/06 12:32:04;;;;;;;1.58;1.50;;;12.70;77.90;;;;;;5024156;28;20310;-72
2022/01/06 12:34:31;;;;;;;1.60;1.50;;;12.70;74.50;;;;;;5016661;28;20223;-72
2022/01/06 12:36:58;;;;;;;1.27;1.27;;;12.50;75.40;;;;;;5024962;28;20200;-71
2022/01/06 12:39:27;;;;;;;1.45;1.45;;;12.40;76.40;;;;;;5020599;28;20219;-71
2022/01/06 12:41:54;;;;;;;1.77;1.67;;;12.40;77.60;;;;;;5025656;28;20211;-73
2022/01/06 12:44:24;;;;;;;1.33;1.33;;;12.60;76.70;;;;;;5026403;28;20238;-73
2022/01/06 12:46:51;;;;;;;1.40;1.40;;;12.60;76.30;;;;;;5025583;28;20474;-72
2022/01/06 12:49:22;;;;;;;1.67;1.58;;;12.60;77.50;;;;;;5025133;28;20598;-74
2022/01/06 12:51:50;;;;;;;1.70;1.60;;;12.80;77.40;;;;;;5026067;28;20223;-71
2022/01/06 12:54:18;;;;;;;1.40;1.40;;;12.70;76.60;;;;;;5020995;28;20223;-71
2022/01/06 12:56:51;;;;;;;1.38;1.38;;;12.70;76.00;;;;;;5021822;28;20191;-73
2022/01/06 12:59:23;;;;;;;1.60;1.50;;;12.70;75.50;;;;;;5021613;28;20218;-72
2022/01/06 13:01:55;;;;;;;1.38;1.38;;;12.70;76.30;;;;;;5024945;28;20219;-73
2022/01/06 13:04:25;;;;;;;1.30;1.30;;;12.70;75.40;;;;;;5021845;28;20223;-71